Time;durP1;ratioP1;P1;durP2;ratioP2;P2;SDS_P1;SDS_P2;PMS_P1;PMS_P2;Temp;Humidity;BMP_temperature;BMP_pressure;BME280_temperature;BME280_humidity;BME280_pressure;Samples;Min_cycle;Max_cycle;Signal;HPM_P1;HPM_P2
2023/02/28 00:00:36;;;;;;;4.00;1.80;;;18.90;59.10;;;;;;4743191;29;88118;-87
2023/02/28 00:03:02;;;;;;;4.93;2.35;;;18.80;59.10;;;;;;4747895;29;90806;-86
2023/02/28 00:05:28;;;;;;;3.97;2.00;;;18.80;59.10;;;;;;4749030;29;86875;-85
2023/02/28 00:07:55;;;;;;;2.42;1.60;;;18.80;59.00;;;;;;4756847;29;89603;-87
2023/02/28 00:13:48;;;;;;;3.22;1.92;;;18.80;59.10;;;;;;4744569;29;87313;-88
2023/02/28 00:16:16;;;;;;;3.50;2.42;;;18.80;59.10;;;;;;4741965;29;87968;-87
2023/02/28 00:18:42;;;;;;;3.23;1.60;;;18.70;59.00;;;;;;4743198;29;87395;-87
2023/02/28 00:21:08;;;;;;;2.13;1.42;;;18.70;59.10;;;;;;4756755;29;88946;-86
2023/02/28 00:23:35;;;;;;;2.22;1.42;;;18.70;59.10;;;;;;4742601;29;88660;-88
2023/02/28 00:36:15;;;;;;;5.40;1.83;;;18.60;59.10;;;;;;4741656;29;87411;-87
2023/02/28 00:38:41;;;;;;;3.80;1.92;;;18.60;59.00;;;;;;4741705;29;87542;-87
2023/02/28 00:41:08;;;;;;;3.78;2.10;;;18.60;59.10;;;;;;4739708;29;89081;-87
2023/02/28 00:43:35;;;;;;;2.55;1.52;;;18.60;59.00;;;;;;4754872;29;91773;-87
2023/02/28 00:46:02;;;;;;;3.10;1.80;;;18.60;59.00;;;;;;4756388;29;91504;-87
2023/02/28 01:15:24;;;;;;;2.60;1.70;;;18.50;58.80;;;;;;4739635;29;88475;-87
2023/02/28 01:17:49;;;;;;;3.10;1.73;;;18.40;58.80;;;;;;4740819;29;87535;-87
2023/02/28 01:20:15;;;;;;;3.58;2.15;;;18.40;58.90;;;;;;4741335;29;89036;-88
2023/02/28 01:22:40;;;;;;;2.53;1.50;;;18.40;59.00;;;;;;4741775;29;87812;-87
2023/02/28 01:25:07;;;;;;;3.05;2.08;;;18.40;58.90;;;;;;4754341;29;87284;-85
2023/02/28 01:27:33;;;;;;;2.88;2.00;;;18.40;58.80;;;;;;4742747;29;87280;-87
2023/02/28 01:29:59;;;;;;;2.85;1.65;;;18.30;58.90;;;;;;4743654;29;88463;-87
2023/02/28 01:39:08;;;;;;;3.80;1.60;;;18.30;58.90;;;;;;4741093;29;87531;-86
2023/02/28 01:41:35;;;;;;;3.22;1.90;;;18.30;58.80;;;;;;4739073;29;89431;-86
2023/02/28 01:44:45;;;;;;;2.83;1.73;;;18.30;58.90;;;;;;4741945;29;88307;-87
2023/02/28 01:47:10;;;;;;;2.28;1.70;;;18.30;58.80;;;;;;4754660;29;87285;-87
2023/02/28 01:49:36;;;;;;;3.10;1.92;;;18.20;58.80;;;;;;4741768;29;89058;-87
2023/02/28 01:52:02;;;;;;;3.47;2.40;;;18.30;58.60;;;;;;4744637;29;88729;-86
2023/02/28 01:54:32;;;;;;;2.70;1.45;;;18.30;58.70;;;;;;4745155;29;89743;-85
2023/02/28 01:57:09;;;;;;;2.95;1.80;;;18.20;58.60;;;;;;4745267;29;87261;-87
2023/02/28 01:59:45;;;;;;;2.58;1.70;;;18.20;58.60;;;;;;4741874;29;90336;-87
2023/02/28 02:05:39;;;;;;;3.50;1.67;;;18.20;58.70;;;;;;4744166;29;87250;-87
2023/02/28 02:08:08;;;;;;;2.40;1.67;;;18.20;58.60;;;;;;4742971;29;88345;-87
2023/02/28 02:10:45;;;;;;;5.28;2.03;;;18.20;58.60;;;;;;4743856;29;87513;-87
2023/02/28 02:13:49;;;;;;;1.95;1.42;;;18.20;58.70;;;;;;4743420;29;89497;-87
2023/02/28 02:23:23;;;;;;;2.00;1.38;;;18.10;58.60;;;;;;4742995;29;86853;-87
2023/02/28 02:26:03;;;;;;;2.05;1.60;;;18.20;58.70;;;;;;4744188;29;88760;-87
2023/02/28 02:29:03;;;;;;;2.50;1.42;;;18.10;58.60;;;;;;4744045;29;88257;-87
2023/02/28 02:35:17;;;;;;;1.98;1.45;;;18.10;58.70;;;;;;4743828;29;86881;-87
2023/02/28 02:37:50;;;;;;;2.85;1.45;;;18.10;58.60;;;;;;4742923;29;88374;-87
2023/02/28 02:40:19;;;;;;;2.65;1.42;;;18.10;58.60;;;;;;4756019;29;91674;-87
2023/02/28 02:42:48;;;;;;;3.00;1.55;;;18.10;58.70;;;;;;4743386;29;86891;-86
2023/02/28 02:45:29;;;;;;;2.10;1.50;;;18.10;58.60;;;;;;4757527;29;90355;-87
2023/02/28 02:47:58;;;;;;;3.33;1.73;;;18.00;58.50;;;;;;4744077;29;88783;-86
2023/02/28 02:50:31;;;;;;;2.97;1.67;;;18.00;58.60;;;;;;4744130;29;88116;-87
2023/02/28 02:56:22;;;;;;;2.38;1.40;;;18.00;58.40;;;;;;4742744;29;86509;-87
2023/02/28 02:58:50;;;;;;;2.00;1.42;;;18.00;58.50;;;;;;4749278;29;90452;-87
2023/02/28 03:01:27;;;;;;;3.50;1.60;;;18.00;58.40;;;;;;4742778;29;87945;-86
2023/02/28 03:04:07;;;;;;;2.72;1.60;;;18.00;58.40;;;;;;4744479;29;88273;-88
2023/02/28 03:06:33;;;;;;;2.38;1.35;;;18.00;58.40;;;;;;4744628;29;91953;-87
2023/02/28 03:09:01;;;;;;;2.10;1.50;;;18.00;58.40;;;;;;4742951;29;89162;-87
2023/02/28 03:11:27;;;;;;;1.83;1.45;;;17.90;58.40;;;;;;4742911;29;87901;-86
2023/02/28 03:14:20;;;;;;;2.28;1.52;;;18.00;58.40;;;;;;4757518;29;86892;-87
2023/02/28 03:16:55;;;;;;;2.00;1.25;;;17.90;58.40;;;;;;4749638;29;89131;-87
2023/02/28 03:19:23;;;;;;;1.98;1.65;;;18.00;58.30;;;;;;4743379;29;87561;-88
2023/02/28 03:21:55;;;;;;;2.60;1.60;;;17.90;58.30;;;;;;4744656;29;88886;-87
2023/02/28 03:24:34;;;;;;;2.17;1.23;;;17.90;58.40;;;;;;4743360;29;87607;-87
2023/02/28 03:27:27;;;;;;;2.47;1.40;;;17.90;58.40;;;;;;4756189;29;89313;-87
2023/02/28 03:29:56;;;;;;;2.40;1.50;;;17.90;58.40;;;;;;4678028;30;88829;-87
2023/02/28 03:32:30;;;;;;;1.50;1.30;;;17.90;58.20;;;;;;4678677;30;89540;-87
2023/02/28 03:35:30;;;;;;;1.70;1.20;;;17.90;58.40;;;;;;4679289;30;87193;-86
2023/02/28 03:38:13;;;;;;;1.83;1.20;;;17.90;58.50;;;;;;4674852;30;87487;-86
2023/02/28 03:40:44;;;;;;;2.88;1.60;;;17.90;58.40;;;;;;4678344;30;88308;-87
2023/02/28 03:43:15;;;;;;;1.30;1.20;;;17.90;58.30;;;;;;4678351;30;88290;-87
2023/02/28 03:45:43;;;;;;;3.33;1.60;;;17.90;58.40;;;;;;4679398;30;86942;-87
2023/02/28 03:48:23;;;;;;;2.17;1.42;;;17.80;58.40;;;;;;4679243;30;87368;-87
2023/02/28 03:50:54;;;;;;;3.17;1.45;;;17.80;58.40;;;;;;4684928;30;91243;-86
2023/02/28 04:07:07;;;;;;;2.28;1.23;;;17.80;58.40;;;;;;4706356;29;91358;-87
2023/02/28 04:09:33;;;;;;;1.75;1.08;;;17.80;58.30;;;;;;4742899;29;87619;-87
2023/02/28 04:11:59;;;;;;;3.17;1.73;;;17.70;58.30;;;;;;4741778;29;86924;-87
2023/02/28 04:14:25;;;;;;;1.95;1.20;;;17.70;58.40;;;;;;4743087;29;88027;-87
2023/02/28 04:16:53;;;;;;;2.38;1.70;;;17.70;58.20;;;;;;4740811;29;91086;-86
2023/02/28 04:19:19;;;;;;;2.65;1.50;;;17.70;58.30;;;;;;4744160;29;87597;-87
2023/02/28 04:21:47;;;;;;;2.55;1.33;;;17.70;58.30;;;;;;4743138;29;86966;-87
2023/02/28 04:24:16;;;;;;;2.60;1.40;;;17.70;58.20;;;;;;4741154;29;89284;-86
2023/02/28 04:26:48;;;;;;;2.00;1.30;;;17.70;58.30;;;;;;4742678;29;90080;-87
2023/02/28 04:29:28;;;;;;;2.22;1.52;;;17.70;58.30;;;;;;4742148;29;86906;-87
2023/02/28 04:31:57;;;;;;;2.92;1.40;;;17.70;58.40;;;;;;4747669;29;90410;-87
2023/02/28 04:34:24;;;;;;;3.50;1.80;;;17.70;58.20;;;;;;4742269;29;88655;-87
2023/02/28 04:36:50;;;;;;;1.77;1.33;;;17.70;58.30;;;;;;4741722;29;87997;-87
2023/02/28 04:39:18;;;;;;;1.55;1.10;;;17.70;58.20;;;;;;4735384;29;87606;-87
2023/02/28 04:41:49;;;;;;;3.05;1.50;;;17.70;58.30;;;;;;4741565;29;88372;-87
2023/02/28 04:44:15;;;;;;;2.00;1.45;;;17.70;58.30;;;;;;4740401;29;89637;-87
2023/02/28 04:46:42;;;;;;;2.75;1.70;;;17.70;58.30;;;;;;4748180;29;90047;-86
2023/02/28 04:49:12;;;;;;;1.67;1.40;;;17.60;58.50;;;;;;4734132;29;88294;-86
2023/02/28 04:51:37;;;;;;;3.20;1.40;;;17.70;58.20;;;;;;4740624;29;90439;-86
2023/02/28 04:54:03;;;;;;;1.60;1.30;;;17.70;58.20;;;;;;4742304;29;88656;-87
2023/02/28 04:56:29;;;;;;;1.20;0.98;;;17.60;58.20;;;;;;4747937;29;90744;-87
2023/02/28 04:58:54;;;;;;;1.70;1.27;;;17.60;58.00;;;;;;4741992;29;86918;-87
2023/02/28 05:01:26;;;;;;;1.88;1.30;;;17.60;58.10;;;;;;4741453;29;87599;-86
2023/02/28 05:07:14;;;;;;;1.95;1.38;;;17.60;58.00;;;;;;4741222;29;91062;-87
2023/02/28 05:09:40;;;;;;;1.67;1.40;;;17.60;58.00;;;;;;4740211;29;87587;-87
2023/02/28 05:12:06;;;;;;;1.52;1.00;;;17.60;57.90;;;;;;4741523;29;87645;-86
2023/02/28 05:14:31;;;;;;;2.20;1.58;;;17.60;58.00;;;;;;4742449;29;89601;-86
2023/02/28 05:16:57;;;;;;;1.55;1.25;;;17.60;58.00;;;;;;4747855;29;92087;-87
2023/02/28 05:19:22;;;;;;;1.45;1.08;;;17.60;57.90;;;;;;4742005;29;87335;-88
2023/02/28 05:21:53;;;;;;;1.63;1.30;;;17.60;58.00;;;;;;4748551;29;90523;-87
2023/02/28 05:24:22;;;;;;;2.05;1.30;;;17.60;58.10;;;;;;4741885;29;88038;-85
2023/02/28 05:26:49;;;;;;;1.80;1.20;;;17.60;57.90;;;;;;4748086;29;91471;-86
2023/02/28 05:52:16;;;;;;;2.08;1.48;;;17.50;57.90;;;;;;4727491;29;92269;-86
2023/02/28 05:54:41;;;;;;;1.85;1.20;;;17.50;57.90;;;;;;4742112;29;88392;-86
2023/02/28 05:57:07;;;;;;;1.38;1.13;;;17.50;57.90;;;;;;4740613;29;87627;-86
2023/02/28 05:59:33;;;;;;;1.75;1.30;;;17.40;57.80;;;;;;4740214;29;90817;-87
2023/02/28 06:18:57;;;;;;;4.68;1.40;;;17.40;58.00;;;;;;4741873;29;92563;-87
2023/02/28 06:21:23;;;;;;;1.77;1.25;;;17.40;57.70;;;;;;4750344;29;87454;-85
2023/02/28 06:23:49;;;;;;;1.75;1.38;;;17.40;57.80;;;;;;4743875;29;88141;-87
2023/02/28 06:26:15;;;;;;;3.53;1.38;;;17.50;57.80;;;;;;4744355;29;88632;-87
2023/02/28 06:28:41;;;;;;;1.83;1.38;;;17.50;57.80;;;;;;4744138;29;88196;-86
2023/02/28 06:31:12;;;;;;;2.35;1.40;;;17.60;57.90;;;;;;4744944;29;87013;-87
2023/02/28 06:33:39;;;;;;;1.80;1.23;;;17.70;57.70;;;;;;4758094;29;88657;-86
2023/02/28 06:36:05;;;;;;;2.45;1.35;;;17.80;57.60;;;;;;4743300;29;88500;-88
2023/02/28 06:38:32;;;;;;;1.58;1.45;;;17.90;57.60;;;;;;4744977;29;89156;-87
2023/02/28 06:40:59;;;;;;;2.85;1.58;;;18.00;57.20;;;;;;4746112;29;88255;-87
2023/02/28 06:43:27;;;;;;;2.88;1.60;;;18.10;56.40;;;;;;4742512;29;93258;-86
2023/02/28 07:00:44;;;;;;;1.80;1.30;;;18.80;56.10;;;;;;4742607;29;92638;-86
2023/02/28 07:03:10;;;;;;;1.90;1.30;;;18.80;56.10;;;;;;4756347;29;89461;-87
2023/02/28 07:05:39;;;;;;;2.17;1.63;;;18.80;55.90;;;;;;4756171;29;87221;-85
2023/02/28 07:08:05;;;;;;;4.20;1.30;;;18.80;56.10;;;;;;4748508;29;90658;-86
2023/02/28 07:10:32;;;;;;;3.53;1.63;;;18.80;56.20;;;;;;4756860;29;92021;-84
2023/02/28 07:12:58;;;;;;;2.58;1.58;;;18.90;56.20;;;;;;4744553;29;89246;-83
2023/02/28 07:15:24;;;;;;;7.47;2.42;;;19.00;56.10;;;;;;4742068;29;87065;-84
2023/02/28 07:17:50;;;;;;;6.32;2.35;;;19.00;54.60;;;;;;4744150;29;87173;-85
2023/02/28 07:20:16;;;;;;;6.70;2.47;;;19.20;54.60;;;;;;4742577;29;87849;-85
2023/02/28 07:22:42;;;;;;;3.35;1.80;;;19.30;54.40;;;;;;4743585;29;88042;-86
2023/02/28 07:25:09;;;;;;;7.35;1.80;;;19.40;54.50;;;;;;4743010;29;87050;-86
2023/02/28 07:34:20;;;;;;;4.47;2.00;;;19.90;53.90;;;;;;4741625;29;87000;-84
2023/02/28 07:36:45;;;;;;;5.40;2.00;;;19.90;53.80;;;;;;4742716;29;88276;-85
2023/02/28 07:39:11;;;;;;;4.43;2.13;;;20.00;53.60;;;;;;4743827;29;87327;-84
2023/02/28 07:41:42;;;;;;;10.10;2.10;;;20.10;53.90;;;;;;4715647;29;91053;-85
2023/02/28 07:44:10;;;;;;;5.93;1.70;;;20.10;53.70;;;;;;4721509;29;88864;-84
2023/02/28 07:46:36;;;;;;;4.70;2.33;;;20.00;53.40;;;;;;4715529;29;87487;-86
2023/02/28 07:49:02;;;;;;;4.80;1.73;;;20.10;53.70;;;;;;4722884;29;87525;-85
2023/02/28 07:51:29;;;;;;;9.57;2.45;;;20.00;53.70;;;;;;4725014;29;89333;-85
2023/02/28 07:53:55;;;;;;;5.97;1.98;;;20.10;53.80;;;;;;4723179;29;88183;-85
2023/02/28 07:56:21;;;;;;;5.30;1.85;;;20.10;54.00;;;;;;4724381;29;87492;-84
2023/02/28 07:58:46;;;;;;;3.72;2.10;;;20.00;54.00;;;;;;4722508;29;87631;-84
2023/02/28 08:01:13;;;;;;;7.13;2.60;;;20.00;54.10;;;;;;4722144;29;89349;-85
2023/02/28 08:03:39;;;;;;;15.40;2.58;;;20.00;54.40;;;;;;4716169;29;90213;-86
2023/02/28 08:06:17;;;;;;;13.57;3.10;;;20.00;54.20;;;;;;4723621;29;87386;-85
2023/02/28 08:08:44;;;;;;;9.13;2.72;;;20.00;54.70;;;;;;4714532;29;89827;-86
2023/02/28 08:11:09;;;;;;;15.32;4.22;;;19.90;54.90;;;;;;4721517;29;90077;-87
2023/02/28 08:13:35;;;;;;;15.88;3.80;;;19.90;54.40;;;;;;4740621;29;88573;-86
2023/02/28 08:16:02;;;;;;;12.10;3.83;;;20.10;53.50;;;;;;4756074;29;87178;-88
2023/02/28 08:18:28;;;;;;;15.43;4.22;;;20.20;52.30;;;;;;4742216;29;86476;-87
2023/02/28 08:27:58;;;;;;;20.33;4.65;;;20.50;50.50;;;;;;4743226;29;88024;-85
2023/02/28 08:30:23;;;;;;;25.70;5.35;;;20.60;49.10;;;;;;4757886;29;89467;-85
2023/02/28 08:32:49;;;;;;;26.58;6.07;;;20.70;48.30;;;;;;4755195;29;90452;-84
2023/02/28 08:35:14;;;;;;;39.03;6.38;;;20.80;48.40;;;;;;4741186;29;88324;-84
2023/02/28 08:37:40;;;;;;;27.75;6.00;;;20.70;47.40;;;;;;4741365;29;86883;-84
2023/02/28 08:40:07;;;;;;;18.00;4.97;;;20.80;49.40;;;;;;4749334;29;88583;-85
2023/02/28 08:42:32;;;;;;;21.52;4.70;;;20.80;50.50;;;;;;4755129;29;92327;-85
2023/02/28 08:44:58;;;;;;;17.15;4.32;;;20.80;50.30;;;;;;4753427;29;91192;-84
2023/02/28 08:47:23;;;;;;;19.20;4.10;;;20.80;50.50;;;;;;4737502;29;88003;-85
2023/02/28 08:49:49;;;;;;;17.98;4.45;;;20.70;50.50;;;;;;4729447;29;87532;-84
2023/02/28 08:52:15;;;;;;;19.77;4.78;;;20.80;50.80;;;;;;4737063;29;89380;-84
2023/02/28 08:54:41;;;;;;;24.63;6.00;;;20.80;51.60;;;;;;4744445;29;92330;-84
2023/02/28 08:57:06;;;;;;;25.95;6.95;;;20.70;51.50;;;;;;4737025;29;87552;-83
2023/02/28 08:59:32;;;;;;;24.88;6.90;;;20.70;51.50;;;;;;4741426;29;87425;-84
2023/02/28 09:01:58;;;;;;;29.63;7.10;;;20.70;51.30;;;;;;4753191;29;91033;-83
2023/02/28 09:04:31;;;;;;;29.15;7.68;;;20.70;50.90;;;;;;4755563;29;91123;-86
2023/02/28 09:06:56;;;;;;;36.60;8.23;;;20.70;51.50;;;;;;4742082;29;86897;-83
2023/02/28 09:09:22;;;;;;;28.15;7.40;;;20.80;51.20;;;;;;4747521;29;90736;-88
2023/02/28 09:11:48;;;;;;;24.38;6.43;;;20.90;50.40;;;;;;4741058;29;87436;-86
2023/02/28 09:14:13;;;;;;;25.05;6.10;;;20.90;52.00;;;;;;4742672;29;87812;-87
2023/02/28 09:16:39;;;;;;;21.77;4.90;;;20.90;52.00;;;;;;4747191;29;88245;-87
2023/02/28 09:19:04;;;;;;;25.55;7.10;;;20.90;52.00;;;;;;4741068;29;86993;-86
2023/02/28 09:21:30;;;;;;;32.60;6.68;;;20.90;50.90;;;;;;4743136;29;89937;-85
2023/02/28 09:23:56;;;;;;;33.05;6.18;;;20.90;50.90;;;;;;4740410;29;91560;-84
2023/02/28 09:26:25;;;;;;;36.78;8.10;;;20.90;51.50;;;;;;4742218;29;87363;-83
2023/02/28 09:28:51;;;;;;;28.65;5.68;;;20.80;50.50;;;;;;4741795;29;87906;-84
2023/02/28 09:31:21;;;;;;;21.90;6.97;;;20.80;50.50;;;;;;4745034;29;87289;-84
2023/02/28 09:33:52;;;;;;;25.25;6.95;;;20.80;50.70;;;;;;4742518;29;87400;-84
2023/02/28 09:36:18;;;;;;;18.58;6.03;;;20.90;50.70;;;;;;4756243;29;87326;-85
2023/02/28 09:38:53;;;;;;;20.95;6.38;;;20.80;48.50;;;;;;4742140;29;87597;-83
2023/02/28 09:41:30;;;;;;;19.05;6.30;;;20.80;48.80;;;;;;4733271;29;89267;-86
2023/02/28 09:44:02;;;;;;;20.08;5.25;;;20.80;49.10;;;;;;4741786;29;89335;-84
2023/02/28 09:46:40;;;;;;;14.38;4.95;;;20.80;49.20;;;;;;4741455;29;87421;-85
2023/02/28 09:49:19;;;;;;;14.55;4.43;;;20.80;49.30;;;;;;4741523;29;87143;-84
2023/02/28 09:51:55;;;;;;;14.27;5.10;;;20.80;49.50;;;;;;4743902;29;88171;-84
2023/02/28 09:54:23;;;;;;;19.60;5.60;;;20.80;49.60;;;;;;4750826;29;90903;-84
2023/02/28 10:04:34;;;;;;;14.88;3.80;;;20.70;49.90;;;;;;4728638;29;91839;-83
2023/02/28 10:07:04;;;;;;;14.50;4.28;;;20.80;50.30;;;;;;4745223;29;88323;-83
2023/02/28 10:09:33;;;;;;;13.57;4.00;;;20.90;50.20;;;;;;4744916;29;88030;-83
2023/02/28 10:12:05;;;;;;;15.30;3.80;;;21.00;50.10;;;;;;4744295;29;87767;-83
2023/02/28 10:14:34;;;;;;;16.75;3.83;;;21.00;48.80;;;;;;4744275;29;88577;-83
2023/02/28 10:17:08;;;;;;;11.60;3.80;;;21.10;49.60;;;;;;4742632;29;89151;-83
2023/02/28 10:19:59;;;;;;;16.45;4.45;;;21.10;49.90;;;;;;4745254;29;87455;-83
2023/02/28 10:22:26;;;;;;;10.57;3.53;;;21.10;49.80;;;;;;4743713;29;87527;-84
2023/02/28 10:24:56;;;;;;;13.50;4.18;;;21.20;50.10;;;;;;4743906;29;88131;-84
2023/02/28 10:27:23;;;;;;;;;;;21.10;50.50;;;;;;4744164;29;88491;-84
2023/02/28 10:29:51;;;;;;;14.90;3.85;;;21.20;50.30;;;;;;4745537;29;87306;-84
2023/02/28 10:32:22;;;;;;;16.83;3.55;;;21.20;50.60;;;;;;4745845;29;88261;-84
2023/02/28 10:34:56;;;;;;;11.82;3.65;;;21.20;50.10;;;;;;4742002;29;90391;-84
2023/02/28 10:37:22;;;;;;;11.82;3.38;;;21.20;50.30;;;;;;4743885;29;89457;-82
2023/02/28 10:39:48;;;;;;;9.43;3.60;;;21.20;50.10;;;;;;4745638;29;87301;-82
2023/02/28 10:42:28;;;;;;;10.95;3.92;;;21.20;50.10;;;;;;4742921;29;87867;-82
2023/02/28 10:45:16;;;;;;;10.32;3.38;;;21.10;50.60;;;;;;4743696;29;89653;-82
2023/02/28 10:48:00;;;;;;;12.05;3.33;;;21.10;50.50;;;;;;4743768;29;88301;-82
2023/02/28 10:50:50;;;;;;;13.43;3.67;;;21.10;50.70;;;;;;4744175;29;87861;-82
2023/02/28 10:53:22;;;;;;;16.10;3.88;;;21.20;51.40;;;;;;4744548;29;87934;-81
2023/02/28 10:56:16;;;;;;;10.35;3.03;;;21.10;50.90;;;;;;4749655;29;91669;-81
2023/02/28 10:59:03;;;;;;;9.75;3.58;;;21.20;51.00;;;;;;4744285;29;88048;-81
2023/02/28 11:01:50;;;;;;;18.10;3.47;;;21.10;51.30;;;;;;4742823;29;88564;-82
2023/02/28 11:04:36;;;;;;;9.23;2.85;;;21.10;51.60;;;;;;4741714;29;87465;-81
2023/02/28 11:07:13;;;;;;;11.45;3.00;;;21.00;51.90;;;;;;4744526;29;88684;-82
2023/02/28 11:09:40;;;;;;;13.00;3.25;;;21.00;52.00;;;;;;4743477;29;88686;-82
2023/02/28 11:15:30;;;;;;;8.45;3.00;;;21.10;52.50;;;;;;4742353;29;90457;-82
2023/02/28 11:17:59;;;;;;;9.98;3.30;;;21.10;52.40;;;;;;4742740;29;90725;-83
2023/02/28 11:20:30;;;;;;;8.35;3.05;;;21.10;52.50;;;;;;4741364;29;86877;-82
2023/02/28 11:22:57;;;;;;;8.32;2.78;;;21.10;51.90;;;;;;4742624;29;87458;-83
2023/02/28 11:25:36;;;;;;;6.20;2.45;;;21.00;52.30;;;;;;4742045;29;87535;-83
2023/02/28 11:28:22;;;;;;;10.50;2.80;;;21.20;52.50;;;;;;4738043;29;88294;-84
2023/02/28 11:30:59;;;;;;;9.50;2.85;;;21.10;51.60;;;;;;4742242;29;92189;-84
2023/02/28 11:33:41;;;;;;;7.38;2.30;;;21.20;51.80;;;;;;4756442;29;87359;-85
2023/02/28 11:36:14;;;;;;;7.43;2.25;;;21.10;52.20;;;;;;4742386;29;87446;-84
2023/02/28 11:38:40;;;;;;;5.10;2.45;;;21.20;52.40;;;;;;4741195;29;87446;-83
2023/02/28 11:41:14;;;;;;;9.98;2.78;;;21.20;52.60;;;;;;4742574;29;87606;-83
2023/02/28 11:44:09;;;;;;;6.80;2.50;;;21.20;52.70;;;;;;4744203;29;87745;-84
2023/02/28 11:46:54;;;;;;;5.65;2.65;;;21.20;52.60;;;;;;4737964;29;86971;-84
2023/02/28 11:49:23;;;;;;;9.55;2.30;;;21.20;52.40;;;;;;4749811;29;87686;-85
2023/02/28 11:52:15;;;;;;;7.13;2.70;;;21.20;52.60;;;;;;4742268;29;88155;-85
2023/02/28 11:55:14;;;;;;;7.70;2.70;;;21.20;52.40;;;;;;4668793;30;88444;-85
2023/02/28 11:57:56;;;;;;;;;;;21.20;52.30;;;;;;4655377;30;93134;-85
2023/02/28 12:00:38;;;;;;;5.43;2.13;;;21.20;52.40;;;;;;4669354;30;87843;-85
2023/02/28 12:03:17;;;;;;;6.85;2.90;;;21.20;52.30;;;;;;4669628;30;88160;-85
2023/02/28 12:05:54;;;;;;;9.55;2.03;;;21.10;52.10;;;;;;4669514;30;87067;-88
2023/02/28 12:09:10;;;;;;;8.43;2.42;;;21.10;51.10;;;;;;4679090;30;88399;-85
2023/02/28 12:11:55;;;;;;;10.63;2.05;;;21.10;51.10;;;;;;4642912;30;90122;-86
2023/02/28 12:14:48;;;;;;;5.80;1.98;;;21.00;51.70;;;;;;4628406;30;89507;-85
2023/02/28 12:18:03;;;;;;;5.65;2.67;;;21.00;51.00;;;;;;4643478;30;86990;-86
2023/02/28 12:20:37;;;;;;;6.95;2.40;;;21.00;51.50;;;;;;4641450;30;87865;-85
2023/02/28 12:23:31;;;;;;;5.85;2.40;;;21.10;51.50;;;;;;4641101;30;89617;-86
2023/02/28 12:26:10;;;;;;;5.65;2.05;;;21.20;51.30;;;;;;4627596;30;89325;-86
2023/02/28 12:32:06;;;;;;;6.93;1.77;;;21.30;51.20;;;;;;4681634;29;87668;-85
2023/02/28 12:34:38;;;;;;;7.93;1.90;;;21.30;51.00;;;;;;4712345;29;88895;-84
2023/02/28 12:37:13;;;;;;;7.32;2.05;;;21.40;51.40;;;;;;4696404;29;90425;-85
2023/02/28 12:39:48;;;;;;;5.55;1.60;;;21.40;51.30;;;;;;4711720;29;87456;-86
2023/02/28 12:42:28;;;;;;;11.55;2.33;;;21.60;51.40;;;;;;4741414;29;87404;-86
2023/02/28 12:45:02;;;;;;;4.47;1.80;;;21.60;51.50;;;;;;4770915;29;87244;-85
2023/02/28 12:50:51;;;;;;;9.15;2.10;;;21.80;51.10;;;;;;4739921;29;87888;-86
2023/02/28 12:53:30;;;;;;;5.53;1.75;;;21.80;50.50;;;;;;4747654;29;90354;-85
2023/02/28 12:56:11;;;;;;;;;;;21.80;50.40;;;;;;4739859;29;91723;-84
2023/02/28 12:58:45;;;;;;;9.75;2.05;;;21.90;50.90;;;;;;4738567;29;87629;-85
2023/02/28 13:01:42;;;;;;;9.73;3.28;;;21.80;50.10;;;;;;4750228;29;86915;-84
2023/02/28 13:04:26;;;;;;;21.77;5.55;;;21.80;50.20;;;;;;4732089;29;87578;-85
2023/02/28 13:07:04;;;;;;;20.45;4.50;;;21.80;50.80;;;;;;4754214;29;90255;-86
2023/02/28 13:09:30;;;;;;;17.48;4.20;;;21.70;50.80;;;;;;4742277;29;92609;-86
2023/02/28 13:11:58;;;;;;;15.27;4.22;;;21.70;51.40;;;;;;4755758;29;87147;-86
2023/02/28 13:14:40;;;;;;;14.35;4.38;;;21.70;50.80;;;;;;4738427;29;88735;-86
2023/02/28 13:17:09;;;;;;;13.98;3.55;;;21.80;50.90;;;;;;4746493;29;91412;-84
2023/02/28 13:19:54;;;;;;;10.60;3.37;;;21.80;51.10;;;;;;4740405;29;88652;-87
2023/02/28 13:22:40;;;;;;;18.73;4.38;;;21.90;50.40;;;;;;4752933;29;87587;-85
2023/02/28 13:25:24;;;;;;;167.23;38.25;;;22.00;49.70;;;;;;4742367;29;87180;-84
2023/02/28 13:27:56;;;;;;;185.45;40.05;;;22.00;49.00;;;;;;4743310;29;91209;-84
2023/02/28 13:30:55;;;;;;;75.32;17.02;;;22.00;49.20;;;;;;4749729;29;92126;-83
2023/02/28 13:33:31;;;;;;;116.35;23.45;;;22.10;48.90;;;;;;4749235;29;87707;-86
2023/02/28 13:36:15;;;;;;;104.32;24.63;;;22.00;48.70;;;;;;4750591;29;87521;-85
2023/02/28 13:38:53;;;;;;;97.10;22.88;;;22.00;49.10;;;;;;4749803;29;88309;-85
2023/02/28 13:41:42;;;;;;;96.05;24.05;;;22.10;48.60;;;;;;4734908;29;89691;-86
2023/02/28 13:48:03;;;;;;;90.20;22.35;;;22.00;49.00;;;;;;4750039;29;87723;-85
2023/02/28 13:50:37;;;;;;;96.85;22.85;;;22.00;49.10;;;;;;4748811;29;88530;-85
2023/02/28 13:53:14;;;;;;;94.45;23.13;;;22.00;49.80;;;;;;4748442;29;91792;-85
2023/02/28 13:55:52;;;;;;;95.55;24.92;;;21.90;49.50;;;;;;4749435;29;87761;-85
2023/02/28 13:58:57;;;;;;;89.55;22.23;;;22.00;50.00;;;;;;4748812;29;88322;-85
2023/02/28 14:01:28;;;;;;;88.82;22.63;;;22.10;50.10;;;;;;4751858;29;91134;-85
2023/02/28 14:04:03;;;;;;;81.30;23.27;;;22.00;50.40;;;;;;4744322;29;87881;-85
2023/02/28 14:06:38;;;;;;;77.70;22.35;;;22.20;50.80;;;;;;4744695;29;88068;-85
2023/02/28 14:09:23;;;;;;;71.10;21.40;;;22.20;50.30;;;;;;4743394;29;87413;-86
2023/02/28 14:12:29;;;;;;;76.70;22.15;;;22.20;50.70;;;;;;4742923;29;88266;-85
2023/02/28 14:14:55;;;;;;;83.47;20.98;;;22.20;50.70;;;;;;4744264;29;89353;-86
2023/02/28 14:17:21;;;;;;;71.10;20.10;;;22.10;50.30;;;;;;4743073;29;87578;-85
2023/02/28 14:19:49;;;;;;;70.03;20.00;;;22.10;50.90;;;;;;4742919;29;87683;-85
2023/02/28 14:22:33;;;;;;;63.70;20.27;;;22.20;50.70;;;;;;4742232;29;89079;-85
2023/02/28 14:25:23;;;;;;;74.45;20.55;;;22.20;51.00;;;;;;4742943;29;87438;-85
2023/02/28 14:28:25;;;;;;;70.38;19.25;;;22.20;51.30;;;;;;4749373;29;89545;-85
2023/02/28 14:37:39;;;;;;;63.47;16.73;;;22.20;51.50;;;;;;4742136;29;87105;-86
2023/02/28 14:40:12;;;;;;;58.80;17.67;;;22.20;51.40;;;;;;4743420;29;88528;-86
2023/02/28 14:42:41;;;;;;;64.90;19.13;;;22.20;51.60;;;;;;4744041;29;87425;-86
2023/02/28 14:45:21;;;;;;;59.35;18.45;;;22.20;51.80;;;;;;4741819;29;89093;-86
2023/02/28 14:47:49;;;;;;;53.40;17.05;;;22.20;52.10;;;;;;4742646;29;88219;-86
2023/02/28 14:50:33;;;;;;;59.40;17.17;;;22.20;52.30;;;;;;4743729;29;87690;-85
2023/02/28 14:52:59;;;;;;;49.03;14.70;;;22.20;52.10;;;;;;4741502;29;90685;-82
2023/02/28 14:55:31;;;;;;;52.53;14.02;;;22.20;50.90;;;;;;4743656;29;87377;-84
2023/02/28 14:58:04;;;;;;;44.95;13.55;;;22.10;50.50;;;;;;4744900;29;88117;-85
2023/02/28 15:00:48;;;;;;;44.28;14.30;;;22.10;49.90;;;;;;4742059;29;90062;-83
2023/02/28 15:03:18;;;;;;;39.00;11.75;;;22.20;48.80;;;;;;4742699;29;87516;-84
2023/02/28 15:06:02;;;;;;;38.58;12.25;;;22.10;49.40;;;;;;4740946;29;89611;-84
2023/02/28 15:08:29;;;;;;;44.30;14.25;;;22.10;48.80;;;;;;4742702;29;89369;-84
2023/02/28 15:11:00;;;;;;;42.33;13.85;;;22.10;49.40;;;;;;4742440;29;87428;-83
2023/02/28 15:13:46;;;;;;;32.85;8.70;;;22.20;49.70;;;;;;4743029;29;87432;-82
2023/02/28 15:16:16;;;;;;;42.72;11.75;;;22.20;46.00;;;;;;4744630;29;88221;-84
2023/02/28 15:18:48;;;;;;;32.72;11.20;;;22.20;48.90;;;;;;4755156;29;90986;-85
2023/02/28 15:21:35;;;;;;;34.72;11.18;;;22.30;49.50;;;;;;4741478;29;87781;-87
2023/02/28 15:24:26;;;;;;;40.55;12.63;;;22.30;50.00;;;;;;4735408;29;87093;-85
2023/02/28 15:26:56;;;;;;;41.35;12.02;;;22.30;50.50;;;;;;4747423;29;92622;-86
2023/02/28 15:29:25;;;;;;;29.35;9.93;;;22.20;50.70;;;;;;4741839;29;88306;-85
2023/02/28 15:31:57;;;;;;;27.00;9.93;;;22.20;51.30;;;;;;4743299;29;88674;-85
2023/02/28 15:34:42;;;;;;;37.08;11.65;;;22.20;51.10;;;;;;4742656;29;87415;-85
2023/02/28 15:37:28;;;;;;;37.15;11.25;;;22.10;51.40;;;;;;4742566;29;87669;-84
2023/02/28 15:40:38;;;;;;;29.55;9.68;;;22.10;51.90;;;;;;4742819;29;88771;-85
2023/02/28 15:43:15;;;;;;;39.83;11.73;;;22.00;51.90;;;;;;4774374;29;88228;-83
2023/02/28 15:45:50;;;;;;;33.33;9.85;;;21.90;52.40;;;;;;4775003;29;87789;-83
2023/02/28 15:48:18;;;;;;;30.08;9.45;;;21.90;52.20;;;;;;4774995;29;88353;-85
2023/02/28 15:50:53;;;;;;;36.45;10.55;;;21.90;52.70;;;;;;4759938;29;87832;-84
2023/02/28 15:53:24;;;;;;;29.17;9.43;;;21.90;52.60;;;;;;4775595;29;87131;-85
2023/02/28 15:55:57;;;;;;;24.42;9.13;;;21.80;52.20;;;;;;4775330;29;87607;-85
2023/02/28 15:58:24;;;;;;;31.25;9.23;;;21.70;51.60;;;;;;4760568;29;90219;-84
2023/02/28 16:01:30;;;;;;;24.02;8.65;;;21.80;52.30;;;;;;4775858;29;89097;-85
2023/02/28 16:04:00;;;;;;;26.73;9.20;;;21.80;52.30;;;;;;4696317;29;87509;-83
2023/02/28 16:06:45;;;;;;;26.95;8.57;;;21.90;52.30;;;;;;4697344;30;90237;-84
2023/02/28 16:09:16;;;;;;;27.13;8.63;;;22.00;52.60;;;;;;4679608;30;90483;-85